sensor_id;sensor_type;location;lat;lon;timestamp;pressure;altitude;pressure_sealevel;temperature;humidity
56174;BME280;42058;52.308;20.924;2023-05-07T09:42:29;101662.28;;;8.88;100.00
56174;BME280;42058;52.308;20.924;2023-05-07T09:44:59;101657.21;;;8.98;100.00
56174;BME280;42058;52.308;20.924;2023-05-07T09:47:32;101662.45;;;9.09;100.00
56174;BME280;42058;52.308;20.924;2023-05-07T09:49:59;101657.19;;;9.15;100.00
56174;BME280;42058;52.308;20.924;2023-05-07T09:52:32;101660.16;;;9.21;100.00
56174;BME280;42058;52.308;20.924;2023-05-07T09:55:02;101661.03;;;9.28;100.00
56174;BME280;42058;52.308;20.924;2023-05-07T09:57:31;101662.23;;;9.36;100.00
56174;BME280;42058;52.308;20.924;2023-05-07T10:03:22;101659.70;;;9.71;100.00
56174;BME280;42058;52.308;20.924;2023-05-07T10:05:56;101659.48;;;9.85;100.00
56174;BME280;42058;52.308;20.924;2023-05-07T10:08:25;101659.44;;;9.96;100.00
56174;BME280;42058;52.308;20.924;2023-05-07T10:10:54;101666.77;;;10.05;99.89
56174;BME280;42058;52.308;20.924;2023-05-07T10:13:22;101667.77;;;10.14;98.90
56174;BME280;42058;52.308;20.924;2023-05-07T10:15:52;101667.90;;;10.24;98.00
56174;BME280;42058;52.308;20.924;2023-05-07T10:18:20;101659.98;;;10.36;95.10
56174;BME280;42058;52.308;20.924;2023-05-07T10:20:51;101660.77;;;10.48;95.82
56174;BME280;42058;52.308;20.924;2023-05-07T10:23:23;101666.30;;;10.62;95.71
56174;BME280;42058;52.308;20.924;2023-05-07T10:25:50;101670.44;;;10.72;94.78
56174;BME280;42058;52.308;20.924;2023-05-07T10:28:28;101673.21;;;10.76;92.09
56174;BME280;42058;52.308;20.924;2023-05-07T10:31:13;101676.71;;;10.78;92.01
56174;BME280;42058;52.308;20.924;2023-05-07T10:33:46;101683.05;;;10.77;89.18
56174;BME280;42058;52.308;20.924;2023-05-07T10:36:15;101679.73;;;10.74;89.64
56174;BME280;42058;52.308;20.924;2023-05-07T10:38:42;101675.00;;;10.71;86.66
56174;BME280;42058;52.308;20.924;2023-05-07T10:41:10;101674.83;;;10.71;88.55
56174;BME280;42058;52.308;20.924;2023-05-07T10:43:40;101679.55;;;10.74;89.09
56174;BME280;42058;52.308;20.924;2023-05-07T10:46:19;101678.61;;;10.84;89.96
56174;BME280;42058;52.308;20.924;2023-05-07T10:51:37;101681.45;;;11.02;88.89
56174;BME280;42058;52.308;20.924;2023-05-07T10:56:41;101678.58;;;11.08;86.24
56174;BME280;42058;52.308;20.924;2023-05-07T11:01:57;101680.46;;;11.14;85.54
56174;BME280;42058;52.308;20.924;2023-05-07T11:04:33;101676.92;;;11.18;84.50
56174;BME280;42058;52.308;20.924;2023-05-07T11:07:21;101681.64;;;11.20;84.26
56174;BME280;42058;52.308;20.924;2023-05-07T11:15:07;101682.66;;;11.24;80.23
56174;BME280;42058;52.308;20.924;2023-05-07T11:17:56;101685.81;;;11.24;80.19
56174;BME280;42058;52.308;20.924;2023-05-07T11:20:54;101688.08;;;11.26;80.47
56174;BME280;42058;52.308;20.924;2023-05-07T11:26:24;101694.71;;;11.31;79.52
56174;BME280;42058;52.308;20.924;2023-05-07T11:28:52;101693.65;;;11.33;79.95
56174;BME280;42058;52.308;20.924;2023-05-07T11:31:22;101692.73;;;11.36;79.24
56174;BME280;42058;52.308;20.924;2023-05-07T11:33:52;101693.76;;;11.39;79.28
56174;BME280;42058;52.308;20.924;2023-05-07T11:36:21;101696.20;;;11.41;78.32
56174;BME280;42058;52.308;20.924;2023-05-07T11:38:48;101696.72;;;11.42;78.15
56174;BME280;42058;52.308;20.924;2023-05-07T11:41:16;101700.58;;;11.43;78.47
56174;BME280;42058;52.308;20.924;2023-05-07T11:43:56;101702.84;;;11.46;78.81
56174;BME280;42058;52.308;20.924;2023-05-07T11:46:24;101701.60;;;11.46;78.09
56174;BME280;42058;52.308;20.924;2023-05-07T11:48:51;101700.87;;;11.48;78.52
56174;BME280;42058;52.308;20.924;2023-05-07T11:51:19;101702.09;;;11.49;78.39
56174;BME280;42058;52.308;20.924;2023-05-07T11:53:47;101704.90;;;11.50;77.36
56174;BME280;42058;52.308;20.924;2023-05-07T11:56:15;101702.60;;;11.52;76.77
56174;BME280;42058;52.308;20.924;2023-05-07T11:58:44;101704.33;;;11.53;77.13
56174;BME280;42058;52.308;20.924;2023-05-07T12:01:12;101703.80;;;11.55;77.14
56174;BME280;42058;52.308;20.924;2023-05-07T12:03:43;101702.17;;;11.58;77.33
56174;BME280;42058;52.308;20.924;2023-05-07T12:06:15;101699.33;;;11.62;77.60
56174;BME280;42058;52.308;20.924;2023-05-07T12:08:44;101698.77;;;11.66;77.37
56174;BME280;42058;52.308;20.924;2023-05-07T12:11:16;101700.80;;;11.72;76.08
56174;BME280;42058;52.308;20.924;2023-05-07T12:13:47;101706.19;;;11.79;75.15
56174;BME280;42058;52.308;20.924;2023-05-07T12:16:14;101707.88;;;11.85;75.82
56174;BME280;42058;52.308;20.924;2023-05-07T12:18:41;101709.95;;;11.88;75.33
56174;BME280;42058;52.308;20.924;2023-05-07T12:21:07;101710.96;;;11.94;74.96
56174;BME280;42058;52.308;20.924;2023-05-07T12:23:36;101715.65;;;11.99;74.97
56174;BME280;42058;52.308;20.924;2023-05-07T12:26:03;101716.08;;;12.07;75.14
56174;BME280;42058;52.308;20.924;2023-05-07T12:28:37;101716.89;;;12.13;73.43
56174;BME280;42058;52.308;20.924;2023-05-07T12:31:05;101712.27;;;12.17;72.23
56174;BME280;42058;52.308;20.924;2023-05-07T12:33:32;101710.45;;;12.22;71.25
56174;BME280;42058;52.308;20.924;2023-05-07T12:36:03;101707.60;;;12.25;71.34
56174;BME280;42058;52.308;20.924;2023-05-07T12:38:34;101711.41;;;12.29;70.66
56174;BME280;42058;52.308;20.924;2023-05-07T12:41:01;101712.61;;;12.32;70.40
56174;BME280;42058;52.308;20.924;2023-05-07T12:43:29;101712.38;;;12.35;69.74
56174;BME280;42058;52.308;20.924;2023-05-07T12:45:58;101715.70;;;12.37;69.06
56174;BME280;42058;52.308;20.924;2023-05-07T12:48:26;101712.47;;;12.42;69.87
56174;BME280;42058;52.308;20.924;2023-05-07T12:50:56;101705.91;;;12.45;69.07
56174;BME280;42058;52.308;20.924;2023-05-07T12:53:25;101710.09;;;12.48;69.68
56174;BME280;42058;52.308;20.924;2023-05-07T12:55:54;101711.80;;;12.52;69.59
56174;BME280;42058;52.308;20.924;2023-05-07T12:58:28;101717.76;;;12.55;68.64
56174;BME280;42058;52.308;20.924;2023-05-07T13:00:56;101722.61;;;12.60;69.11
56174;BME280;42058;52.308;20.924;2023-05-07T13:03:32;101717.39;;;12.67;68.71
56174;BME280;42058;52.308;20.924;2023-05-07T13:06:01;101715.52;;;12.76;67.99
56174;BME280;42058;52.308;20.924;2023-05-07T13:08:36;101710.66;;;12.82;67.20
56174;BME280;42058;52.308;20.924;2023-05-07T13:11:04;101711.60;;;12.90;66.42
56174;BME280;42058;52.308;20.924;2023-05-07T13:13:31;101710.23;;;12.98;66.05
56174;BME280;42058;52.308;20.924;2023-05-07T13:16:00;101712.02;;;13.07;65.52
56174;BME280;42058;52.308;20.924;2023-05-07T13:18:27;101714.36;;;13.16;64.32
56174;BME280;42058;52.308;20.924;2023-05-07T13:20:53;101715.45;;;13.23;64.27
56174;BME280;42058;52.308;20.924;2023-05-07T13:23:20;101708.80;;;13.32;63.41
56174;BME280;42058;52.308;20.924;2023-05-07T13:25:48;101712.89;;;13.41;63.45
56174;BME280;42058;52.308;20.924;2023-05-07T13:28:16;101710.25;;;13.51;62.37
56174;BME280;42058;52.308;20.924;2023-05-07T13:30:43;101707.83;;;13.57;61.43
56174;BME280;42058;52.308;20.924;2023-05-07T13:33:09;101701.04;;;13.63;61.19
56174;BME280;42058;52.308;20.924;2023-05-07T13:35:36;101698.08;;;13.70;61.25
56174;BME280;42058;52.308;20.924;2023-05-07T13:38:02;101695.48;;;13.77;60.70
56174;BME280;42058;52.308;20.924;2023-05-07T13:40:29;101689.60;;;13.80;59.72
56174;BME280;42058;52.308;20.924;2023-05-07T13:43:00;101692.86;;;13.84;59.40
56174;BME280;42058;52.308;20.924;2023-05-07T13:45:29;101695.27;;;13.87;58.79
56174;BME280;42058;52.308;20.924;2023-05-07T13:47:56;101690.67;;;13.88;58.14
56174;BME280;42058;52.308;20.924;2023-05-07T13:50:23;101694.23;;;13.86;57.05
56174;BME280;42058;52.308;20.924;2023-05-07T13:52:52;101694.83;;;13.83;57.29
56174;BME280;42058;52.308;20.924;2023-05-07T13:55:23;101691.52;;;13.81;57.24
56174;BME280;42058;52.308;20.924;2023-05-07T13:57:57;101690.69;;;13.79;56.47
56174;BME280;42058;52.308;20.924;2023-05-07T14:00:24;101693.84;;;13.79;57.24
56174;BME280;42058;52.308;20.924;2023-05-07T14:02:51;101696.31;;;13.80;56.58
56174;BME280;42058;52.308;20.924;2023-05-07T14:05:18;101698.25;;;13.80;57.10
56174;BME280;42058;52.308;20.924;2023-05-07T14:07:45;101699.85;;;13.79;56.89
56174;BME280;42058;52.308;20.924;2023-05-07T14:10:11;101697.24;;;13.77;56.38
56174;BME280;42058;52.308;20.924;2023-05-07T14:12:39;101691.68;;;13.73;56.32
56174;BME280;42058;52.308;20.924;2023-05-07T14:15:07;101692.97;;;13.70;56.40
56174;BME280;42058;52.308;20.924;2023-05-07T14:17:33;101694.62;;;13.67;56.17
56174;BME280;42058;52.308;20.924;2023-05-07T14:20:00;101691.16;;;13.63;55.93
56174;BME280;42058;52.308;20.924;2023-05-07T14:22:26;101696.31;;;13.60;56.23
56174;BME280;42058;52.308;20.924;2023-05-07T14:24:52;101697.25;;;13.58;55.90
56174;BME280;42058;52.308;20.924;2023-05-07T14:27:32;101698.52;;;13.56;56.25
56174;BME280;42058;52.308;20.924;2023-05-07T14:29:58;101701.01;;;13.55;56.03
56174;BME280;42058;52.308;20.924;2023-05-07T14:32:25;101704.41;;;13.52;56.13
56174;BME280;42058;52.308;20.924;2023-05-07T14:34:53;101711.67;;;13.50;55.85
56174;BME280;42058;52.308;20.924;2023-05-07T14:37:20;101705.23;;;13.46;55.42
56174;BME280;42058;52.308;20.924;2023-05-07T14:39:47;101707.42;;;13.41;55.04
56174;BME280;42058;52.308;20.924;2023-05-07T14:42:16;101708.92;;;13.36;55.04
56174;BME280;42058;52.308;20.924;2023-05-07T14:44:43;101707.06;;;13.32;55.29
56174;BME280;42058;52.308;20.924;2023-05-07T14:47:10;101707.27;;;13.27;55.39
56174;BME280;42058;52.308;20.924;2023-05-07T14:49:37;101714.21;;;13.24;55.59
56174;BME280;42058;52.308;20.924;2023-05-07T14:52:04;101716.55;;;13.21;55.56
56174;BME280;42058;52.308;20.924;2023-05-07T14:54:33;101717.48;;;13.18;55.64
56174;BME280;42058;52.308;20.924;2023-05-07T14:57:04;101715.59;;;13.15;55.50
56174;BME280;42058;52.308;20.924;2023-05-07T14:59:31;101717.08;;;13.11;55.10
56174;BME280;42058;52.308;20.924;2023-05-07T15:01:58;101709.38;;;13.07;55.00
56174;BME280;42058;52.308;20.924;2023-05-07T15:04:24;101711.71;;;13.04;55.34
56174;BME280;42058;52.308;20.924;2023-05-07T15:06:51;101711.08;;;13.01;55.30
56174;BME280;42058;52.308;20.924;2023-05-07T15:09:19;101712.52;;;12.99;55.56
56174;BME280;42058;52.308;20.924;2023-05-07T15:11:46;101711.14;;;12.97;55.97
56174;BME280;42058;52.308;20.924;2023-05-07T15:14:12;101709.90;;;12.97;56.18
56174;BME280;42058;52.308;20.924;2023-05-07T15:16:39;101716.25;;;12.96;56.48
56174;BME280;42058;52.308;20.924;2023-05-07T15:19:05;101709.58;;;12.95;56.19
56174;BME280;42058;52.308;20.924;2023-05-07T15:21:31;101708.91;;;12.93;56.19
56174;BME280;42058;52.308;20.924;2023-05-07T15:24:01;101703.84;;;12.91;56.09
56174;BME280;42058;52.308;20.924;2023-05-07T15:26:27;101701.05;;;12.88;56.15
56174;BME280;42058;52.308;20.924;2023-05-07T15:28:53;101706.20;;;12.86;56.13
56174;BME280;42058;52.308;20.924;2023-05-07T15:31:23;101708.73;;;12.83;55.85
56174;BME280;42058;52.308;20.924;2023-05-07T15:33:50;101709.47;;;12.79;55.78
56174;BME280;42058;52.308;20.924;2023-05-07T15:36:19;101708.99;;;12.76;55.95
56174;BME280;42058;52.308;20.924;2023-05-07T15:38:46;101712.88;;;12.75;56.06
56174;BME280;42058;52.308;20.924;2023-05-07T15:41:12;101721.17;;;12.74;56.17
56174;BME280;42058;52.308;20.924;2023-05-07T15:43:44;101721.36;;;12.73;55.86
56174;BME280;42058;52.308;20.924;2023-05-07T15:46:11;101722.09;;;12.71;55.97
56174;BME280;42058;52.308;20.924;2023-05-07T15:48:38;101719.82;;;12.70;55.86
56174;BME280;42058;52.308;20.924;2023-05-07T15:51:04;101715.61;;;12.69;56.02
56174;BME280;42058;52.308;20.924;2023-05-07T15:53:32;101717.74;;;12.68;56.03
56174;BME280;42058;52.308;20.924;2023-05-07T15:55:59;101719.17;;;12.66;55.88
56174;BME280;42058;52.308;20.924;2023-05-07T15:58:26;101715.33;;;12.64;55.95
56174;BME280;42058;52.308;20.924;2023-05-07T16:00:52;101714.66;;;12.61;56.02
56174;BME280;42058;52.308;20.924;2023-05-07T16:03:19;101720.14;;;12.61;56.05
56174;BME280;42058;52.308;20.924;2023-05-07T16:05:47;101715.41;;;12.58;56.16
56174;BME280;42058;52.308;20.924;2023-05-07T16:08:13;101718.09;;;12.56;55.91
56174;BME280;42058;52.308;20.924;2023-05-07T16:10:40;101718.46;;;12.54;56.00
56174;BME280;42058;52.308;20.924;2023-05-07T16:13:06;101711.45;;;12.52;56.05
56174;BME280;42058;52.308;20.924;2023-05-07T16:15:32;101711.84;;;12.50;56.10
56174;BME280;42058;52.308;20.924;2023-05-07T16:17:59;101712.05;;;12.47;56.10
56174;BME280;42058;52.308;20.924;2023-05-07T16:20:27;101711.55;;;12.45;56.10
56174;BME280;42058;52.308;20.924;2023-05-07T16:22:55;101711.92;;;12.44;56.23
56174;BME280;42058;52.308;20.924;2023-05-07T16:25:23;101714.41;;;12.41;56.22
56174;BME280;42058;52.308;20.924;2023-05-07T16:27:52;101716.73;;;12.40;56.39
56174;BME280;42058;52.308;20.924;2023-05-07T16:30:19;101717.45;;;12.38;56.46
56174;BME280;42058;52.308;20.924;2023-05-07T16:32:45;101712.73;;;12.36;56.31
56174;BME280;42058;52.308;20.924;2023-05-07T16:35:12;101712.75;;;12.35;56.38
56174;BME280;42058;52.308;20.924;2023-05-07T16:37:41;101715.93;;;12.33;56.54
56174;BME280;42058;52.308;20.924;2023-05-07T16:40:08;101715.26;;;12.32;56.50
56174;BME280;42058;52.308;20.924;2023-05-07T16:42:35;101716.69;;;12.29;56.58
56174;BME280;42058;52.308;20.924;2023-05-07T16:45:02;101720.95;;;12.26;56.75
56174;BME280;42058;52.308;20.924;2023-05-07T16:47:32;101720.09;;;12.24;56.85
56174;BME280;42058;52.308;20.924;2023-05-07T16:49:58;101722.94;;;12.21;57.07
56174;BME280;42058;52.308;20.924;2023-05-07T16:52:27;101726.14;;;12.19;56.84
56174;BME280;42058;52.308;20.924;2023-05-07T16:54:54;101729.67;;;12.17;56.88
56174;BME280;42058;52.308;20.924;2023-05-07T16:57:26;101726.55;;;12.14;56.70
56174;BME280;42058;52.308;20.924;2023-05-07T16:59:55;101730.29;;;12.11;56.81
56174;BME280;42058;52.308;20.924;2023-05-07T17:02:22;101726.81;;;12.07;56.83
56174;BME280;42058;52.308;20.924;2023-05-07T17:04:48;101726.85;;;12.04;57.18
56174;BME280;42058;52.308;20.924;2023-05-07T17:07:14;101731.46;;;12.01;57.00
56174;BME280;42058;52.308;20.924;2023-05-07T17:09:41;101729.02;;;11.99;57.23
56174;BME280;42058;52.308;20.924;2023-05-07T17:12:08;101729.41;;;11.96;57.44
56174;BME280;42058;52.308;20.924;2023-05-07T17:14:34;101733.66;;;11.93;57.47
56174;BME280;42058;52.308;20.924;2023-05-07T17:17:00;101732.62;;;11.91;57.57
56174;BME280;42058;52.308;20.924;2023-05-07T17:19:27;101731.75;;;11.89;57.70
56174;BME280;42058;52.308;20.924;2023-05-07T17:21:53;101732.66;;;11.84;57.93
56174;BME280;42058;52.308;20.924;2023-05-07T17:24:19;101731.12;;;11.81;58.00
56174;BME280;42058;52.308;20.924;2023-05-07T17:26:49;101735.37;;;11.78;58.10
56174;BME280;42058;52.308;20.924;2023-05-07T17:29:15;101738.75;;;11.74;58.02
56174;BME280;42058;52.308;20.924;2023-05-07T17:31:42;101742.64;;;11.71;58.29
56174;BME280;42058;52.308;20.924;2023-05-07T17:34:09;101747.09;;;11.67;58.69
56174;BME280;42058;52.308;20.924;2023-05-07T17:36:35;101749.94;;;11.63;58.70
56174;BME280;42058;52.308;20.924;2023-05-07T17:39:02;101753.31;;;11.60;58.89
56174;BME280;42058;52.308;20.924;2023-05-07T17:41:29;101752.45;;;11.56;58.78
56174;BME280;42058;52.308;20.924;2023-05-07T17:43:55;101754.79;;;11.53;59.08
56174;BME280;42058;52.308;20.924;2023-05-07T17:46:22;101757.46;;;11.48;59.26
56174;BME280;42058;52.308;20.924;2023-05-07T17:48:48;101756.27;;;11.45;59.46
56174;BME280;42058;52.308;20.924;2023-05-07T17:51:15;101762.63;;;11.41;59.84
56174;BME280;42058;52.308;20.924;2023-05-07T17:53:41;101761.96;;;11.36;60.06
56174;BME280;42058;52.308;20.924;2023-05-07T17:56:08;101760.94;;;11.31;60.49
56174;BME280;42058;52.308;20.924;2023-05-07T17:58:34;101767.48;;;11.25;60.72
56174;BME280;42058;52.308;20.924;2023-05-07T18:01:21;101768.05;;;11.20;61.25
56174;BME280;42058;52.308;20.924;2023-05-07T18:03:49;101771.98;;;11.14;61.66
56174;BME280;42058;52.308;20.924;2023-05-07T18:06:17;101771.66;;;11.08;61.99
56174;BME280;42058;52.308;20.924;2023-05-07T18:08:46;101775.56;;;11.03;62.56
56174;BME280;42058;52.308;20.924;2023-05-07T18:11:12;101782.98;;;10.97;63.09
56174;BME280;42058;52.308;20.924;2023-05-07T18:13:39;101784.59;;;10.90;63.62
56174;BME280;42058;52.308;20.924;2023-05-07T18:16:05;101786.90;;;10.85;64.11
56174;BME280;42058;52.308;20.924;2023-05-07T18:18:32;101789.94;;;10.78;65.47
56174;BME280;42058;52.308;20.924;2023-05-07T18:21:00;101789.42;;;10.72;66.80
56174;BME280;42058;52.308;20.924;2023-05-07T18:23:27;101794.03;;;10.66;67.65
56174;BME280;42058;52.308;20.924;2023-05-07T18:25:53;101796.34;;;10.60;69.01
56174;BME280;42058;52.308;20.924;2023-05-07T18:28:20;101796.90;;;10.52;70.71
56174;BME280;42058;52.308;20.924;2023-05-07T18:30:46;101799.56;;;10.46;71.45
56174;BME280;42058;52.308;20.924;2023-05-07T18:33:13;101805.02;;;10.39;71.23
56174;BME280;42058;52.308;20.924;2023-05-07T18:35:39;101806.98;;;10.33;71.67
56174;BME280;42058;52.308;20.924;2023-05-07T18:38:05;101811.70;;;10.27;72.39
56174;BME280;42058;52.308;20.924;2023-05-07T18:40:32;101817.33;;;10.22;73.21
56174;BME280;42058;52.308;20.924;2023-05-07T18:42:58;101823.64;;;10.16;73.93
56174;BME280;42058;52.308;20.924;2023-05-07T18:45:34;101824.02;;;10.10;74.57
56174;BME280;42058;52.308;20.924;2023-05-07T18:48:00;101826.49;;;10.04;75.39
56174;BME280;42058;52.308;20.924;2023-05-07T18:50:27;101831.22;;;9.99;75.85
56174;BME280;42058;52.308;20.924;2023-05-07T18:52:53;101829.31;;;9.93;77.05
56174;BME280;42058;52.308;20.924;2023-05-07T18:55:20;101834.23;;;9.88;77.99
56174;BME280;42058;52.308;20.924;2023-05-07T18:57:47;101841.41;;;9.82;77.87
56174;BME280;42058;52.308;20.924;2023-05-07T19:00:14;101846.33;;;9.77;78.31
56174;BME280;42058;52.308;20.924;2023-05-07T19:02:41;101849.84;;;9.72;78.87
56174;BME280;42058;52.308;20.924;2023-05-07T19:05:07;101857.73;;;9.66;78.87
56174;BME280;42058;52.308;20.924;2023-05-07T19:07:34;101856.48;;;9.61;79.36
56174;BME280;42058;52.308;20.924;2023-05-07T19:10:00;101856.13;;;9.55;80.33
56174;BME280;42058;52.308;20.924;2023-05-07T19:12:32;101858.59;;;9.50;80.85
56174;BME280;42058;52.308;20.924;2023-05-07T19:14:58;101864.36;;;9.45;80.88
56174;BME280;42058;52.308;20.924;2023-05-07T19:17:24;101868.39;;;9.39;81.09
56174;BME280;42058;52.308;20.924;2023-05-07T19:19:51;101870.30;;;9.33;81.31
56174;BME280;42058;52.308;20.924;2023-05-07T19:22:17;101870.46;;;9.27;81.67
56174;BME280;42058;52.308;20.924;2023-05-07T19:24:43;101872.21;;;9.21;82.73
56174;BME280;42058;52.308;20.924;2023-05-07T19:27:09;101876.91;;;9.16;83.11
56174;BME280;42058;52.308;20.924;2023-05-07T19:29:36;101876.73;;;9.11;83.62
56174;BME280;42058;52.308;20.924;2023-05-07T19:32:02;101876.02;;;9.05;84.04
56174;BME280;42058;52.308;20.924;2023-05-07T19:34:29;101878.10;;;9.01;84.10
56174;BME280;42058;52.308;20.924;2023-05-07T19:36:55;101882.64;;;8.95;84.76
56174;BME280;42058;52.308;20.924;2023-05-07T19:39:22;101885.08;;;8.91;85.41
56174;BME280;42058;52.308;20.924;2023-05-07T19:41:48;101888.72;;;8.86;85.51
56174;BME280;42058;52.308;20.924;2023-05-07T19:44:15;101899.05;;;8.82;85.96
56174;BME280;42058;52.308;20.924;2023-05-07T19:46:41;101905.84;;;8.79;86.31
56174;BME280;42058;52.308;20.924;2023-05-07T19:49:10;101906.00;;;8.74;86.59
56174;BME280;42058;52.308;20.924;2023-05-07T19:51:38;101906.85;;;8.70;86.69
56174;BME280;42058;52.308;20.924;2023-05-07T19:54:05;101903.52;;;8.65;87.01
56174;BME280;42058;52.308;20.924;2023-05-07T19:56:31;101902.95;;;8.61;87.28
56174;BME280;42058;52.308;20.924;2023-05-07T19:58:57;101908.70;;;8.57;87.48
56174;BME280;42058;52.308;20.924;2023-05-07T20:01:24;101909.73;;;8.53;87.74
56174;BME280;42058;52.308;20.924;2023-05-07T20:03:50;101911.63;;;8.49;87.94
56174;BME280;42058;52.308;20.924;2023-05-07T20:06:17;101911.78;;;8.44;87.57
56174;BME280;42058;52.308;20.924;2023-05-07T20:08:44;101911.19;;;8.40;87.57
56174;BME280;42058;52.308;20.924;2023-05-07T20:11:10;101918.16;;;8.36;87.86
56174;BME280;42058;52.308;20.924;2023-05-07T20:13:38;101922.69;;;8.32;88.20
56174;BME280;42058;52.308;20.924;2023-05-07T20:16:05;101922.82;;;8.26;88.14
56174;BME280;42058;52.308;20.924;2023-05-07T20:18:31;101926.66;;;8.23;88.18
56174;BME280;42058;52.308;20.924;2023-05-07T20:20:58;101928.38;;;8.20;88.34
56174;BME280;42058;52.308;20.924;2023-05-07T20:23:24;101930.44;;;8.16;88.33
56174;BME280;42058;52.308;20.924;2023-05-07T20:25:50;101930.22;;;8.11;88.81
56174;BME280;42058;52.308;20.924;2023-05-07T20:28:17;101934.91;;;8.07;88.77
56174;BME280;42058;52.308;20.924;2023-05-07T20:30:44;101938.03;;;8.02;88.90
56174;BME280;42058;52.308;20.924;2023-05-07T20:33:11;101937.46;;;7.98;89.21
56174;BME280;42058;52.308;20.924;2023-05-07T20:35:37;101939.35;;;7.94;89.67
56174;BME280;42058;52.308;20.924;2023-05-07T20:38:04;101939.49;;;7.90;89.69
56174;BME280;42058;52.308;20.924;2023-05-07T20:40:30;101944.00;;;7.85;89.68
56174;BME280;42058;52.308;20.924;2023-05-07T20:42:59;101941.34;;;7.81;90.09
56174;BME280;42058;52.308;20.924;2023-05-07T20:45:27;101950.20;;;7.77;90.28
56174;BME280;42058;52.308;20.924;2023-05-07T20:47:53;101949.13;;;7.73;90.71
56174;BME280;42058;52.308;20.924;2023-05-07T20:50:24;101951.86;;;7.68;90.83
56174;BME280;42058;52.308;20.924;2023-05-07T20:52:51;101956.19;;;7.64;91.46
56174;BME280;42058;52.308;20.924;2023-05-07T20:55:18;101958.59;;;7.60;91.34
56174;BME280;42058;52.308;20.924;2023-05-07T20:57:44;101963.63;;;7.56;91.42
56174;BME280;42058;52.308;20.924;2023-05-07T21:00:10;101962.54;;;7.53;91.82
56174;BME280;42058;52.308;20.924;2023-05-07T21:02:37;101964.77;;;7.49;91.66
56174;BME280;42058;52.308;20.924;2023-05-07T21:05:04;101964.38;;;7.46;92.06
56174;BME280;42058;52.308;20.924;2023-05-07T21:07:31;101967.13;;;7.41;92.34
56174;BME280;42058;52.308;20.924;2023-05-07T21:09:57;101970.23;;;7.37;92.45
56174;BME280;42058;52.308;20.924;2023-05-07T21:12:23;101973.31;;;7.33;92.59
56174;BME280;42058;52.308;20.924;2023-05-07T21:14:49;101975.71;;;7.28;93.00
56174;BME280;42058;52.308;20.924;2023-05-07T21:17:16;101982.99;;;7.24;93.20
56174;BME280;42058;52.308;20.924;2023-05-07T21:19:42;101984.35;;;7.21;93.12
56174;BME280;42058;52.308;20.924;2023-05-07T21:22:09;101986.21;;;7.17;93.37
56174;BME280;42058;52.308;20.924;2023-05-07T21:24:35;101986.70;;;7.13;93.37
56174;BME280;42058;52.308;20.924;2023-05-07T21:27:01;101989.79;;;7.09;93.96
56174;BME280;42058;52.308;20.924;2023-05-07T21:29:29;101990.25;;;7.05;94.04
56174;BME280;42058;52.308;20.924;2023-05-07T21:31:55;101991.41;;;7.00;93.75
56174;BME280;42058;52.308;20.924;2023-05-07T21:34:22;101995.03;;;6.97;94.01
56174;BME280;42058;52.308;20.924;2023-05-07T21:36:48;101997.59;;;6.92;94.24
56174;BME280;42058;52.308;20.924;2023-05-07T21:39:15;102002.79;;;6.90;94.31
56174;BME280;42058;52.308;20.924;2023-05-07T21:41:41;102005.54;;;6.86;94.49
56174;BME280;42058;52.308;20.924;2023-05-07T21:44:08;102008.27;;;6.83;94.63
56174;BME280;42058;52.308;20.924;2023-05-07T21:46:36;102005.41;;;6.79;94.67
56174;BME280;42058;52.308;20.924;2023-05-07T21:49:02;102011.82;;;6.75;94.71
56174;BME280;42058;52.308;20.924;2023-05-07T21:51:29;102013.50;;;6.70;94.92
56174;BME280;42058;52.308;20.924;2023-05-07T21:53:55;102019.00;;;6.65;95.05
56174;BME280;42058;52.308;20.924;2023-05-07T21:56:21;102020.85;;;6.61;95.20
56174;BME280;42058;52.308;20.924;2023-05-07T21:58:47;102020.48;;;6.58;95.14
56174;BME280;42058;52.308;20.924;2023-05-07T22:01:14;102025.47;;;6.56;95.22
56174;BME280;42058;52.308;20.924;2023-05-07T22:03:40;102025.27;;;6.53;95.46
56174;BME280;42058;52.308;20.924;2023-05-07T22:06:07;102023.98;;;6.49;95.48
56174;BME280;42058;52.308;20.924;2023-05-07T22:08:33;102022.34;;;6.45;95.71
56174;BME280;42058;52.308;20.924;2023-05-07T22:11:00;102025.62;;;6.42;95.82
56174;BME280;42058;52.308;20.924;2023-05-07T22:13:26;102030.26;;;6.39;96.17
56174;BME280;42058;52.308;20.924;2023-05-07T22:15:53;102031.94;;;6.34;96.38
56174;BME280;42058;52.308;20.924;2023-05-07T22:18:24;102029.40;;;6.29;96.37
56174;BME280;42058;52.308;20.924;2023-05-07T22:20:51;102030.07;;;6.26;96.42
56174;BME280;42058;52.308;20.924;2023-05-07T22:23:17;102032.96;;;6.23;96.38
56174;BME280;42058;52.308;20.924;2023-05-07T22:25:44;102033.09;;;6.20;96.55
56174;BME280;42058;52.308;20.924;2023-05-07T22:28:10;102033.02;;;6.16;96.57
56174;BME280;42058;52.308;20.924;2023-05-07T22:30:37;102033.14;;;6.13;96.64
56174;BME280;42058;52.308;20.924;2023-05-07T22:33:03;102032.39;;;6.10;96.67
56174;BME280;42058;52.308;20.924;2023-05-07T22:35:30;102033.04;;;6.07;96.94
56174;BME280;42058;52.308;20.924;2023-05-07T22:37:56;102031.39;;;6.03;97.10
56174;BME280;42058;52.308;20.924;2023-05-07T22:40:23;102030.45;;;5.99;97.21
56174;BME280;42058;52.308;20.924;2023-05-07T22:42:49;102031.94;;;5.95;97.37
56174;BME280;42058;52.308;20.924;2023-05-07T22:45:16;102029.95;;;5.92;97.48
56174;BME280;42058;52.308;20.924;2023-05-07T22:47:42;102033.73;;;5.89;97.48